Heiseimaru No.18 — JD2423 — position and weather

sailwx.info

Track history (hours):
 
Tides and Currents Weather Stations Pressure Air Temp Water Temp Dewpoint Dewpoint Depression Visibility Wind Speed Wind Dir Waves Ship Positions

Heiseimaru No.18

Last reported at 2018-Apr-23 07:00 UTC. Time now 2018-Apr-23 07:14 UTC.
Position N 35°02' E 136°51'.

Length 75 m; draft 5 m.

Type: Cargo ship. MMSI: 431000193.

Date/timePositionNaut miles runAvg speedWind from/ knotsBaromVisibWave heightAir tempDewpointWater temp
2018-Apr-23 07:00N 35°02' E 136°51'510.7
2018-Apr-23 06:31N 34°57' E 136°47'611.2
2018-Apr-23 06:00N 34°51' E 136°47'611.6
2018-Apr-23 05:30N 34°46' E 136°49'13 8.3
2018-Apr-23 03:54N 34°41' E 137°05'410.8
2018-Apr-23 03:30N 34°44' E 137°09'5 0.5
2018-Apr-22 16:28N 34°48' E 137°13'4 9.3
2018-Apr-22 16:00N 34°44' E 137°10'710.2
2018-Apr-22 15:21N 34°40' E 137°03'410.2
2018-Apr-22 14:56N 34°38' E 136°59'4 8.7
2018-Apr-22 14:30N 34°34' E 137°00'5 9.8
2018-Apr-22 14:00N 34°29' E 137°02'611.0
2018-Apr-22 13:30N 34°24' E 137°00'4910.4
2018-Apr-22 08:48N 33°48' E 136°20'65 8.3
2018-Apr-22 01:01N 33°52' E 135°03'210.5
2018-Apr-22 00:51N 33°54' E 135°02'410.5
2018-Apr-22 00:29N 33°58' E 135°03'510.9
2018-Apr-22 00:00N 34°03' E 135°03'510.7
2018-Apr-21 23:30N 34°09' E 135°03'510.6
2018-Apr-21 23:01N 34°14' E 135°03'611.2
2018-Apr-21 22:30N 34°19' E 135°04'611.5
2018-Apr-21 22:01N 34°24' E 135°08'611.1
2018-Apr-21 21:30N 34°28' E 135°13'510.6
2018-Apr-21 21:00N 34°32' E 135°17'510.3
2018-Apr-21 20:30N 34°36' E 135°22'4 8.2
2018-Apr-21 20:00N 34°35' E 135°27'1 1.5
2018-Apr-21 19:30N 34°34' E 135°27'0 0.0
2018-Apr-21 19:00N 34°34' E 135°27'0 0.0
2018-Apr-21 18:30N 34°34' E 135°27'0 0.0
2018-Apr-21 18:00N 34°34' E 135°27'0 0.0
2018-Apr-21 17:30N 34°34' E 135°27'0 0.0
2018-Apr-21 17:00N 34°34' E 135°27'0 0.0
2018-Apr-21 16:30N 34°34' E 135°27'0 0.0
2018-Apr-21 16:00N 34°34' E 135°27'0 0.0
2018-Apr-21 15:30N 34°34' E 135°27'0 0.0
2018-Apr-21 15:00N 34°34' E 135°27'0 0.0
2018-Apr-21 14:30N 34°34' E 135°27'0 0.0
2018-Apr-21 14:00N 34°34' E 135°27'0 0.0
2018-Apr-21 13:30N 34°34' E 135°27'0 0.0
2018-Apr-21 13:00N 34°34' E 135°27'0 0.0
2018-Apr-21 12:30N 34°34' E 135°27'0 0.0
2018-Apr-21 12:00N 34°34' E 135°27'0 0.0
2018-Apr-21 11:30N 34°34' E 135°27'0 0.0
2018-Apr-21 11:00N 34°34' E 135°27'0 0.0
2018-Apr-21 10:30N 34°34' E 135°27'0 0.0
2018-Apr-21 10:00N 34°34' E 135°27'0 0.0
2018-Apr-21 09:30N 34°34' E 135°27'0 0.0
2018-Apr-21 09:00N 34°34' E 135°27'0 0.0
2018-Apr-21 08:30N 34°34' E 135°27'0 0.0
2018-Apr-21 08:00N 34°34' E 135°27'0 0.0
2018-Apr-21 07:30N 34°34' E 135°27'1 1.7
2018-Apr-21 07:00N 34°35' E 135°27'0 0.0
2018-Apr-21 06:30N 34°35' E 135°27'0 0.0
2018-Apr-21 06:00N 34°35' E 135°27'4 7.0
2018-Apr-21 05:30N 34°36' E 135°23'5 9.7
2018-Apr-21 05:00N 34°32' E 135°24'1 1.4
2018-Apr-21 04:30N 34°31' E 135°24'0 0.0
2018-Apr-21 04:00N 34°31' E 135°24'0 0.0
2018-Apr-21 03:30N 34°31' E 135°24'0 0.0
2018-Apr-21 03:00N 34°31' E 135°24'0 0.0
2018-Apr-21 02:30N 34°31' E 135°24'0 0.0
2018-Apr-21 02:00N 34°31' E 135°24'0 0.0
2018-Apr-21 01:30N 34°31' E 135°24'3 6.4
2018-Apr-21 01:00N 34°32' E 135°21'611.9
2018-Apr-21 00:30N 34°29' E 135°14'611.5
2018-Apr-21 00:00N 34°25' E 135°09'611.6
2018-Apr-20 23:30N 34°20' E 135°05'611.6
2018-Apr-20 23:00N 34°15' E 135°03'612.0
2018-Apr-20 22:30N 34°09' E 135°03'611.5
2018-Apr-20 22:00N 34°03' E 135°03'611.3
2018-Apr-20 21:30N 33°57' E 135°02'510.9
2018-Apr-20 21:00N 33°52' E 135°03'98 8.3
2018-Apr-20 09:18N 34°29' E 136°52'310.4
2018-Apr-20 08:58N 34°31' E 136°48'511.3
2018-Apr-20 08:30N 34°36' E 136°47'611.6
2018-Apr-20 07:59N 34°42' E 136°46'611.7
2018-Apr-20 07:30N 34°48' E 136°46'611.9
2018-Apr-20 07:00N 34°54' E 136°46'611.4
2018-Apr-20 06:30N 34°59' E 136°49'510.9
2018-Apr-20 06:00N 35°04' E 136°52'0 0.4
2018-Apr-20 05:30N 35°04' E 136°52'0 0.0
2018-Apr-20 05:00N 35°04' E 136°52'0 0.0
2018-Apr-20 04:30N 35°04' E 136°52'0 0.0
2018-Apr-20 04:00N 35°04' E 136°52'0 0.0
2018-Apr-20 03:30N 35°04' E 136°52'0 0.0
2018-Apr-20 03:00N 35°04' E 136°52'0 0.0
2018-Apr-20 02:30N 35°04' E 136°52'0 0.0
2018-Apr-20 02:00N 35°04' E 136°52'0 0.0
2018-Apr-20 01:30N 35°04' E 136°52'0 0.0
2018-Apr-20 01:00N 35°04' E 136°52'0 0.0
2018-Apr-20 00:30N 35°04' E 136°52'0 0.0
2018-Apr-20 00:00N 35°04' E 136°52'0 0.0
2018-Apr-19 23:30N 35°04' E 136°52'2 3.6
2018-Apr-19 23:00N 35°02' E 136°51'4 8.8
2018-Apr-19 22:30N 34°59' E 136°48'0 0.2
2018-Apr-19 22:00N 34°59' E 136°48'0 0.0
2018-Apr-19 21:30N 34°59' E 136°48'0 0.1
2018-Apr-19 21:00N 34°59' E 136°48'0 0.0
2018-Apr-19 20:30N 34°59' E 136°48'0 0.1
2018-Apr-19 20:00N 34°59' E 136°48'0 0.0
2018-Apr-19 19:30N 34°59' E 136°48'0 0.1
2018-Apr-19 19:00N 34°59' E 136°48'0 0.0
2018-Apr-19 18:30N 34°59' E 136°48'0 0.0
2018-Apr-19 18:00N 34°59' E 136°48'0 0.0
2018-Apr-19 17:30N 34°59' E 136°48'0 0.0
2018-Apr-19 16:59N 34°59' E 136°48'0 0.0
2018-Apr-19 16:30N 34°59' E 136°48'0 0.0
2018-Apr-19 16:00N 34°59' E 136°48'0 0.0
2018-Apr-19 15:30N 34°59' E 136°48'1 1.0
2018-Apr-19 15:00N 34°58' E 136°47'5 9.9
2018-Apr-19 14:30N 34°53' E 136°47'510.0
2018-Apr-19 14:00N 34°48' E 136°47'610.3
2018-Apr-19 13:27N 34°42' E 136°47'8 9.8
2018-Apr-19 12:35N 34°34' E 136°47'210.3
2018-Apr-19 12:21N 34°32' E 136°48'3 8.2
2018-Apr-19 12:00N 34°30' E 136°51'97 6.9
2018-Apr-18 21:52N 33°54' E 135°02'410.7
2018-Apr-18 21:30N 33°58' E 135°01'510.7
2018-Apr-18 21:00N 34°03' E 135°02'510.6
2018-Apr-18 20:30N 34°09' E 135°02'510.6
2018-Apr-18 20:00N 34°14' E 135°03'611.3
2018-Apr-18 19:30N 34°19' E 135°05'611.3
2018-Apr-18 19:01N 34°24' E 135°09'611.4
2018-Apr-18 18:30N 34°28' E 135°13'510.7
2018-Apr-18 18:00N 34°32' E 135°18'510.6
2018-Apr-18 17:30N 34°36' E 135°22'4 7.9
2018-Apr-18 17:00N 34°35' E 135°27'1 1.2
2018-Apr-18 16:30N 34°34' E 135°27'0 0.0
2018-Apr-18 16:00N 34°34' E 135°27'0 0.0
2018-Apr-18 15:30N 34°34' E 135°27'0 0.0
2018-Apr-18 15:00N 34°34' E 135°27'0 0.0
2018-Apr-18 14:30N 34°34' E 135°27'0 0.0
2018-Apr-18 14:00N 34°34' E 135°27'0 0.0
2018-Apr-18 13:30N 34°34' E 135°27'0 0.0
2018-Apr-18 13:00N 34°34' E 135°27'0 0.0
2018-Apr-18 12:30N 34°34' E 135°27'0 0.0
2018-Apr-18 12:00N 34°34' E 135°27'0 0.0
2018-Apr-18 11:30N 34°34' E 135°27'0 0.0
2018-Apr-18 11:00N 34°34' E 135°27'0 0.0
2018-Apr-18 10:30N 34°34' E 135°27'0 0.0
2018-Apr-18 10:00N 34°34' E 135°27'0 0.0
2018-Apr-18 09:30N 34°34' E 135°27'0 0.0
2018-Apr-18 09:00N 34°34' E 135°27'0 1.0
2018-Apr-18 08:30N 34°34' E 135°27'4 7.2
2018-Apr-18 08:00N 34°36' E 135°23'5 9.5
2018-Apr-18 07:30N 34°32' E 135°24'1 1.7
2018-Apr-18 07:00N 34°31' E 135°24'0 0.0
2018-Apr-18 06:30N 34°31' E 135°24'0 0.0
2018-Apr-18 06:00N 34°31' E 135°24'0 0.0
2018-Apr-18 05:30N 34°31' E 135°24'0 0.0
2018-Apr-18 05:00N 34°31' E 135°24'0 0.0
2018-Apr-18 04:30N 34°31' E 135°24'0 0.0
2018-Apr-18 04:00N 34°31' E 135°24'0 0.0
2018-Apr-18 03:30N 34°31' E 135°24'0 0.0
2018-Apr-18 03:00N 34°31' E 135°24'0 0.0
2018-Apr-18 02:30N 34°31' E 135°24'0 0.0
2018-Apr-18 02:00N 34°31' E 135°24'0 0.0
2018-Apr-18 01:30N 34°31' E 135°24'0 0.0
2018-Apr-18 01:00N 34°31' E 135°24'0 0.0
2018-Apr-18 00:30N 34°31' E 135°24'0 0.0
2018-Apr-18 00:00N 34°31' E 135°24'0 0.0
2018-Apr-17 23:30N 34°31' E 135°24'0 0.0
2018-Apr-17 22:59N 34°31' E 135°24'0 0.0
2018-Apr-17 22:30N 34°31' E 135°24'0 0.0
2018-Apr-17 22:00N 34°31' E 135°24'0 0.0
2018-Apr-17 21:30N 34°31' E 135°24'0 0.0
2018-Apr-17 21:00N 34°31' E 135°24'0 0.0
2018-Apr-17 20:30N 34°31' E 135°24'0 0.0
2018-Apr-17 20:00N 34°31' E 135°24'0 0.0
2018-Apr-17 19:30N 34°31' E 135°24'0 0.0
2018-Apr-17 19:00N 34°31' E 135°24'0 0.0
2018-Apr-17 18:30N 34°31' E 135°24'0 0.0
2018-Apr-17 18:00N 34°31' E 135°24'0 0.0
2018-Apr-17 17:30N 34°31' E 135°24'0 0.0
2018-Apr-17 17:00N 34°31' E 135°24'0 0.0
2018-Apr-17 16:30N 34°31' E 135°24'0 0.0
2018-Apr-17 16:00N 34°31' E 135°24'0 0.0
2018-Apr-17 15:30N 34°31' E 135°24'0 0.0
2018-Apr-17 15:00N 34°31' E 135°24'0 0.0
2018-Apr-17 14:30N 34°31' E 135°24'0 0.0
2018-Apr-17 14:00N 34°31' E 135°24'0 0.0
2018-Apr-17 13:30N 34°31' E 135°24'0 0.0
2018-Apr-17 13:00N 34°31' E 135°24'0 0.0
2018-Apr-17 12:29N 34°31' E 135°24'0 0.0
2018-Apr-17 12:00N 34°31' E 135°24'0 0.0
2018-Apr-17 11:30N 34°31' E 135°24'0 0.0
2018-Apr-17 11:00N 34°31' E 135°24'0 0.0
2018-Apr-17 10:30N 34°31' E 135°24'0 0.0
2018-Apr-17 10:00N 34°31' E 135°24'0 0.0
2018-Apr-17 09:30N 34°31' E 135°24'0 0.0
2018-Apr-17 09:00N 34°31' E 135°24'0 0.0
2018-Apr-17 08:30N 34°31' E 135°24'0 0.0
2018-Apr-17 08:00N 34°31' E 135°24'0 0.0
2018-Apr-17 07:30N 34°31' E 135°24'0 0.0
2018-Apr-17 07:00N 34°31' E 135°24'0 0.0
2018-Apr-17 06:30N 34°31' E 135°24'0 0.0
2018-Apr-17 06:00N 34°31' E 135°24'0 0.0
2018-Apr-17 05:30N 34°31' E 135°24'19 1.9
2018-Apr-16 19:26N 34°20' E 135°05'511.1
2018-Apr-16 19:00N 34°16' E 135°03'510.9
2018-Apr-16 18:30N 34°10' E 135°02'611.1
2018-Apr-16 18:00N 34°05' E 135°02'510.9
2018-Apr-16 17:30N 33°59' E 135°02'510.8
2018-Apr-16 17:00N 33°54' E 135°03'176 9.7
2018-Apr-15 22:50N 34°35' E 138°30'410.8
2018-Apr-15 22:28N 34°35' E 138°35'611.0
2018-Apr-15 21:56N 34°35' E 138°42'511.2
2018-Apr-15 21:28N 34°35' E 138°48'510.9
2018-Apr-15 20:59N 34°36' E 138°55'711.1
2018-Apr-15 20:23N 34°39' E 139°02'411.1
2018-Apr-15 20:00N 34°42' E 139°06'2311.1
2018-Apr-15 17:57N 34°59' E 139°24'510.6
2018-Apr-15 17:27N 35°02' E 139°30'511.6
2018-Apr-15 17:00N 35°04' E 139°35'612.5
2018-Apr-15 16:30N 35°07' E 139°42'612.0
2018-Apr-15 16:00N 35°12' E 139°46'510.4
2018-Apr-15 15:30N 35°17' E 139°44'510.6
2018-Apr-15 15:01N 35°22' E 139°41'1 2.2
2018-Apr-15 14:30N 35°23' E 139°40'0 0.0
2018-Apr-15 14:00N 35°23' E 139°40'0 0.0
2018-Apr-15 13:31N 35°23' E 139°40'0 0.0
2018-Apr-15 13:00N 35°23' E 139°40'0 0.0
2018-Apr-15 12:30N 35°23' E 139°40'0 0.1
2018-Apr-15 12:00N 35°23' E 139°40'0 0.0
2018-Apr-15 11:30N 35°23' E 139°40'0 0.0
2018-Apr-15 11:01N 35°23' E 139°40'0 0.0
2018-Apr-15 10:30N 35°23' E 139°40'0 0.0
2018-Apr-15 10:00N 35°23' E 139°40'0 0.1
2018-Apr-15 09:30N 35°23' E 139°40'0 0.1
2018-Apr-15 09:01N 35°23' E 139°40'0 0.0
2018-Apr-15 08:31N 35°23' E 139°40'0 0.0
2018-Apr-15 08:00N 35°23' E 139°40'3 5.4
2018-Apr-15 07:31N 35°24' E 139°43'611.2
2018-Apr-15 07:00N 35°28' E 139°48'510.7
2018-Apr-15 06:30N 35°32' E 139°53'511.0
2018-Apr-15 06:00N 35°36' E 139°57'4 8.2
2018-Apr-15 05:30N 35°40' E 139°57'0 0.7
2018-Apr-15 04:57N 35°40' E 139°56'0 0.0
2018-Apr-14 17:07N 35°40' E 139°56'0 0.0
2018-Apr-14 16:50N 35°40' E 139°56'0 0.0
2018-Apr-14 14:12N 35°40' E 139°56'0 0.0
2018-Apr-14 13:55N 35°40' E 139°56'0 0.0
2018-Apr-14 13:29N 35°40' E 139°56'0 0.0
2018-Apr-14 12:26N 35°40' E 139°56'0 0.0
2018-Apr-14 11:14N 35°40' E 139°56'0 0.0
2018-Apr-14 05:47N 35°40' E 139°56'2 1.0
2018-Apr-14 03:25N 35°38' E 139°58'510.9
2018-Apr-14 03:00N 35°35' E 139°56'611.5
2018-Apr-14 02:30N 35°30' E 139°51'611.3
2018-Apr-14 02:01N 35°27' E 139°45'510.6
2018-Apr-14 01:30N 35°23' E 139°41'2 3.5
2018-Apr-14 01:01N 35°23' E 139°38'0 0.0
2018-Apr-14 00:30N 35°23' E 139°38'0 0.0
2018-Apr-14 00:01N 35°23' E 139°38'0 0.0
2018-Apr-13 23:30N 35°23' E 139°38'0 0.0
2018-Apr-13 23:00N 35°23' E 139°38'1 2.2
2018-Apr-13 22:31N 35°24' E 139°40'0 0.3
2018-Apr-13 22:00N 35°23' E 139°40'0 0.0
2018-Apr-13 21:31N 35°23' E 139°40'0 0.0
2018-Apr-13 21:01N 35°23' E 139°40'0 0.1
2018-Apr-13 20:30N 35°23' E 139°40'0 0.0
2018-Apr-13 20:00N 35°23' E 139°40'0 0.1
2018-Apr-13 19:31N 35°23' E 139°40'0 0.0
2018-Apr-13 19:00N 35°23' E 139°40'0 0.0
2018-Apr-13 18:30N 35°23' E 139°40'0 0.0
2018-Apr-13 18:00N 35°23' E 139°40'0 0.0
2018-Apr-13 17:30N 35°23' E 139°40'0 0.0
2018-Apr-13 17:00N 35°23' E 139°40'0 0.0
2018-Apr-13 16:30N 35°23' E 139°40'4 3.5
2018-Apr-13 15:30N 35°25' E 139°44'611.3
2018-Apr-13 15:00N 35°28' E 139°49'510.9
2018-Apr-13 14:30N 35°33' E 139°53'611.1
2018-Apr-13 13:59N 35°37' E 139°58'3 0.9
2018-Apr-13 10:21N 35°40' E 139°57'3 4.7
2018-Apr-13 09:47N 35°38' E 139°59'1 4.4
2018-Apr-13 09:28N 35°37' E 139°58'0 0.0
2018-Apr-13 08:59N 35°37' E 139°58'0 0.0
2018-Apr-13 08:30N 35°37' E 139°58'0 0.2
2018-Apr-13 08:00N 35°37' E 139°58'0 0.0
2018-Apr-13 07:07N 35°37' E 139°58'  
Track history (hours):
 
Tides and Currents Weather Stations Pressure Air Temp Water Temp Dewpoint Dewpoint Depression Visibility Wind Speed Wind Dir Waves Ship Positions

Heiseimaru No.18

Last reported at 2018-Apr-23 07:00 UTC. Time now 2018-Apr-23 07:14 UTC.
Position N 35°02' E 136°51'.

Length 75 m; draft 5 m.

Type: Cargo ship. MMSI: 431000193.

Date/timePositionNaut miles runAvg speedWind from/ knotsBaromVisibWave heightAir tempDewpointWater temp
2018-Apr-23 07:00N 35°02' E 136°51'510.7
2018-Apr-23 06:31N 34°57' E 136°47'611.2
2018-Apr-23 06:00N 34°51' E 136°47'611.6
2018-Apr-23 05:30N 34°46' E 136°49'13 8.3
2018-Apr-23 03:54N 34°41' E 137°05'410.8
2018-Apr-23 03:30N 34°44' E 137°09'5 0.5
2018-Apr-22 16:28N 34°48' E 137°13'4 9.3
2018-Apr-22 16:00N 34°44' E 137°10'710.2
2018-Apr-22 15:21N 34°40' E 137°03'410.2
2018-Apr-22 14:56N 34°38' E 136°59'4 8.7
2018-Apr-22 14:30N 34°34' E 137°00'5 9.8
2018-Apr-22 14:00N 34°29' E 137°02'611.0
2018-Apr-22 13:30N 34°24' E 137°00'4910.4
2018-Apr-22 08:48N 33°48' E 136°20'65 8.3
2018-Apr-22 01:01N 33°52' E 135°03'210.5
2018-Apr-22 00:51N 33°54' E 135°02'410.5
2018-Apr-22 00:29N 33°58' E 135°03'510.9
2018-Apr-22 00:00N 34°03' E 135°03'510.7
2018-Apr-21 23:30N 34°09' E 135°03'510.6
2018-Apr-21 23:01N 34°14' E 135°03'611.2
2018-Apr-21 22:30N 34°19' E 135°04'611.5
2018-Apr-21 22:01N 34°24' E 135°08'611.1
2018-Apr-21 21:30N 34°28' E 135°13'510.6
2018-Apr-21 21:00N 34°32' E 135°17'510.3
2018-Apr-21 20:30N 34°36' E 135°22'4 8.2
2018-Apr-21 20:00N 34°35' E 135°27'1 1.5
2018-Apr-21 19:30N 34°34' E 135°27'0 0.0
2018-Apr-21 19:00N 34°34' E 135°27'0 0.0
2018-Apr-21 18:30N 34°34' E 135°27'0 0.0
2018-Apr-21 18:00N 34°34' E 135°27'0 0.0
2018-Apr-21 17:30N 34°34' E 135°27'0 0.0
2018-Apr-21 17:00N 34°34' E 135°27'0 0.0
2018-Apr-21 16:30N 34°34' E 135°27'0 0.0
2018-Apr-21 16:00N 34°34' E 135°27'0 0.0
2018-Apr-21 15:30N 34°34' E 135°27'0 0.0
2018-Apr-21 15:00N 34°34' E 135°27'0 0.0
2018-Apr-21 14:30N 34°34' E 135°27'0 0.0
2018-Apr-21 14:00N 34°34' E 135°27'0 0.0
2018-Apr-21 13:30N 34°34' E 135°27'0 0.0
2018-Apr-21 13:00N 34°34' E 135°27'0 0.0
2018-Apr-21 12:30N 34°34' E 135°27'0 0.0
2018-Apr-21 12:00N 34°34' E 135°27'0 0.0
2018-Apr-21 11:30N 34°34' E 135°27'0 0.0
2018-Apr-21 11:00N 34°34' E 135°27'0 0.0
2018-Apr-21 10:30N 34°34' E 135°27'0 0.0
2018-Apr-21 10:00N 34°34' E 135°27'0 0.0
2018-Apr-21 09:30N 34°34' E 135°27'0 0.0
2018-Apr-21 09:00N 34°34' E 135°27'0 0.0
2018-Apr-21 08:30N 34°34' E 135°27'0 0.0
2018-Apr-21 08:00N 34°34' E 135°27'0 0.0
2018-Apr-21 07:30N 34°34' E 135°27'1 1.7
2018-Apr-21 07:00N 34°35' E 135°27'0 0.0
2018-Apr-21 06:30N 34°35' E 135°27'0 0.0
2018-Apr-21 06:00N 34°35' E 135°27'4 7.0
2018-Apr-21 05:30N 34°36' E 135°23'5 9.7
2018-Apr-21 05:00N 34°32' E 135°24'1 1.4
2018-Apr-21 04:30N 34°31' E 135°24'0 0.0
2018-Apr-21 04:00N 34°31' E 135°24'0 0.0
2018-Apr-21 03:30N 34°31' E 135°24'0 0.0
2018-Apr-21 03:00N 34°31' E 135°24'0 0.0
2018-Apr-21 02:30N 34°31' E 135°24'0 0.0
2018-Apr-21 02:00N 34°31' E 135°24'0 0.0
2018-Apr-21 01:30N 34°31' E 135°24'3 6.4
2018-Apr-21 01:00N 34°32' E 135°21'611.9
2018-Apr-21 00:30N 34°29' E 135°14'611.5
2018-Apr-21 00:00N 34°25' E 135°09'611.6
2018-Apr-20 23:30N 34°20' E 135°05'611.6
2018-Apr-20 23:00N 34°15' E 135°03'612.0
2018-Apr-20 22:30N 34°09' E 135°03'611.5
2018-Apr-20 22:00N 34°03' E 135°03'611.3
2018-Apr-20 21:30N 33°57' E 135°02'510.9
2018-Apr-20 21:00N 33°52' E 135°03'98 8.3
2018-Apr-20 09:18N 34°29' E 136°52'310.4
2018-Apr-20 08:58N 34°31' E 136°48'511.3
2018-Apr-20 08:30N 34°36' E 136°47'611.6
2018-Apr-20 07:59N 34°42' E 136°46'611.7
2018-Apr-20 07:30N 34°48' E 136°46'611.9
2018-Apr-20 07:00N 34°54' E 136°46'611.4
2018-Apr-20 06:30N 34°59' E 136°49'510.9
2018-Apr-20 06:00N 35°04' E 136°52'0 0.4
2018-Apr-20 05:30N 35°04' E 136°52'0 0.0
2018-Apr-20 05:00N 35°04' E 136°52'0 0.0
2018-Apr-20 04:30N 35°04' E 136°52'0 0.0
2018-Apr-20 04:00N 35°04' E 136°52'0 0.0
2018-Apr-20 03:30N 35°04' E 136°52'0 0.0
2018-Apr-20 03:00N 35°04' E 136°52'0 0.0
2018-Apr-20 02:30N 35°04' E 136°52'0 0.0
2018-Apr-20 02:00N 35°04' E 136°52'0 0.0
2018-Apr-20 01:30N 35°04' E 136°52'0 0.0
2018-Apr-20 01:00N 35°04' E 136°52'0 0.0
2018-Apr-20 00:30N 35°04' E 136°52'0 0.0
2018-Apr-20 00:00N 35°04' E 136°52'0 0.0
2018-Apr-19 23:30N 35°04' E 136°52'2 3.6
2018-Apr-19 23:00N 35°02' E 136°51'4 8.8
2018-Apr-19 22:30N 34°59' E 136°48'0 0.2
2018-Apr-19 22:00N 34°59' E 136°48'0 0.0
2018-Apr-19 21:30N 34°59' E 136°48'0 0.1
2018-Apr-19 21:00N 34°59' E 136°48'0 0.0
2018-Apr-19 20:30N 34°59' E 136°48'0 0.1
2018-Apr-19 20:00N 34°59' E 136°48'0 0.0
2018-Apr-19 19:30N 34°59' E 136°48'0 0.1
2018-Apr-19 19:00N 34°59' E 136°48'0 0.0
2018-Apr-19 18:30N 34°59' E 136°48'0 0.0
2018-Apr-19 18:00N 34°59' E 136°48'0 0.0
2018-Apr-19 17:30N 34°59' E 136°48'0 0.0
2018-Apr-19 16:59N 34°59' E 136°48'0 0.0
2018-Apr-19 16:30N 34°59' E 136°48'0 0.0
2018-Apr-19 16:00N 34°59' E 136°48'0 0.0
2018-Apr-19 15:30N 34°59' E 136°48'1 1.0
2018-Apr-19 15:00N 34°58' E 136°47'5 9.9
2018-Apr-19 14:30N 34°53' E 136°47'510.0
2018-Apr-19 14:00N 34°48' E 136°47'610.3
2018-Apr-19 13:27N 34°42' E 136°47'8 9.8
2018-Apr-19 12:35N 34°34' E 136°47'210.3
2018-Apr-19 12:21N 34°32' E 136°48'3 8.2
2018-Apr-19 12:00N 34°30' E 136°51'97 6.9
2018-Apr-18 21:52N 33°54' E 135°02'410.7
2018-Apr-18 21:30N 33°58' E 135°01'510.7
2018-Apr-18 21:00N 34°03' E 135°02'510.6
2018-Apr-18 20:30N 34°09' E 135°02'510.6
2018-Apr-18 20:00N 34°14' E 135°03'611.3
2018-Apr-18 19:30N 34°19' E 135°05'611.3
2018-Apr-18 19:01N 34°24' E 135°09'611.4
2018-Apr-18 18:30N 34°28' E 135°13'510.7
2018-Apr-18 18:00N 34°32' E 135°18'510.6
2018-Apr-18 17:30N 34°36' E 135°22'4 7.9
2018-Apr-18 17:00N 34°35' E 135°27'1 1.2
2018-Apr-18 16:30N 34°34' E 135°27'0 0.0
2018-Apr-18 16:00N 34°34' E 135°27'0 0.0
2018-Apr-18 15:30N 34°34' E 135°27'0 0.0
2018-Apr-18 15:00N 34°34' E 135°27'0 0.0
2018-Apr-18 14:30N 34°34' E 135°27'0 0.0
2018-Apr-18 14:00N 34°34' E 135°27'0 0.0
2018-Apr-18 13:30N 34°34' E 135°27'0 0.0
2018-Apr-18 13:00N 34°34' E 135°27'0 0.0
2018-Apr-18 12:30N 34°34' E 135°27'0 0.0
2018-Apr-18 12:00N 34°34' E 135°27'0 0.0
2018-Apr-18 11:30N 34°34' E 135°27'0 0.0
2018-Apr-18 11:00N 34°34' E 135°27'0 0.0
2018-Apr-18 10:30N 34°34' E 135°27'0 0.0
2018-Apr-18 10:00N 34°34' E 135°27'0 0.0
2018-Apr-18 09:30N 34°34' E 135°27'0 0.0
2018-Apr-18 09:00N 34°34' E 135°27'0 1.0
2018-Apr-18 08:30N 34°34' E 135°27'4 7.2
2018-Apr-18 08:00N 34°36' E 135°23'5 9.5
2018-Apr-18 07:30N 34°32' E 135°24'1 1.7
2018-Apr-18 07:00N 34°31' E 135°24'0 0.0
2018-Apr-18 06:30N 34°31' E 135°24'0 0.0
2018-Apr-18 06:00N 34°31' E 135°24'0 0.0
2018-Apr-18 05:30N 34°31' E 135°24'0 0.0
2018-Apr-18 05:00N 34°31' E 135°24'0 0.0
2018-Apr-18 04:30N 34°31' E 135°24'0 0.0
2018-Apr-18 04:00N 34°31' E 135°24'0 0.0
2018-Apr-18 03:30N 34°31' E 135°24'0 0.0
2018-Apr-18 03:00N 34°31' E 135°24'0 0.0
2018-Apr-18 02:30N 34°31' E 135°24'0 0.0
2018-Apr-18 02:00N 34°31' E 135°24'0 0.0
2018-Apr-18 01:30N 34°31' E 135°24'0 0.0
2018-Apr-18 01:00N 34°31' E 135°24'0 0.0
2018-Apr-18 00:30N 34°31' E 135°24'0 0.0
2018-Apr-18 00:00N 34°31' E 135°24'0 0.0
2018-Apr-17 23:30N 34°31' E 135°24'0 0.0
2018-Apr-17 22:59N 34°31' E 135°24'0 0.0
2018-Apr-17 22:30N 34°31' E 135°24'0 0.0
2018-Apr-17 22:00N 34°31' E 135°24'0 0.0
2018-Apr-17 21:30N 34°31' E 135°24'0 0.0
2018-Apr-17 21:00N 34°31' E 135°24'0 0.0
2018-Apr-17 20:30N 34°31' E 135°24'0 0.0
2018-Apr-17 20:00N 34°31' E 135°24'0 0.0
2018-Apr-17 19:30N 34°31' E 135°24'0 0.0
2018-Apr-17 19:00N 34°31' E 135°24'0 0.0
2018-Apr-17 18:30N 34°31' E 135°24'0 0.0
2018-Apr-17 18:00N 34°31' E 135°24'0 0.0
2018-Apr-17 17:30N 34°31' E 135°24'0 0.0
2018-Apr-17 17:00N 34°31' E 135°24'0 0.0
2018-Apr-17 16:30N 34°31' E 135°24'0 0.0
2018-Apr-17 16:00N 34°31' E 135°24'0 0.0
2018-Apr-17 15:30N 34°31' E 135°24'0 0.0
2018-Apr-17 15:00N 34°31' E 135°24'0 0.0
2018-Apr-17 14:30N 34°31' E 135°24'0 0.0
2018-Apr-17 14:00N 34°31' E 135°24'0 0.0
2018-Apr-17 13:30N 34°31' E 135°24'0 0.0
2018-Apr-17 13:00N 34°31' E 135°24'0 0.0
2018-Apr-17 12:29N 34°31' E 135°24'0 0.0
2018-Apr-17 12:00N 34°31' E 135°24'0 0.0
2018-Apr-17 11:30N 34°31' E 135°24'0 0.0
2018-Apr-17 11:00N 34°31' E 135°24'0 0.0
2018-Apr-17 10:30N 34°31' E 135°24'0 0.0
2018-Apr-17 10:00N 34°31' E 135°24'0 0.0
2018-Apr-17 09:30N 34°31' E 135°24'0 0.0
2018-Apr-17 09:00N 34°31' E 135°24'0 0.0
2018-Apr-17 08:30N 34°31' E 135°24'0 0.0
2018-Apr-17 08:00N 34°31' E 135°24'0 0.0
2018-Apr-17 07:30N 34°31' E 135°24'0 0.0
2018-Apr-17 07:00N 34°31' E 135°24'0 0.0
2018-Apr-17 06:30N 34°31' E 135°24'0 0.0
2018-Apr-17 06:00N 34°31' E 135°24'0 0.0
2018-Apr-17 05:30N 34°31' E 135°24'19 1.9
2018-Apr-16 19:26N 34°20' E 135°05'511.1
2018-Apr-16 19:00N 34°16' E 135°03'510.9
2018-Apr-16 18:30N 34°10' E 135°02'611.1
2018-Apr-16 18:00N 34°05' E 135°02'510.9
2018-Apr-16 17:30N 33°59' E 135°02'510.8
2018-Apr-16 17:00N 33°54' E 135°03'176 9.7
2018-Apr-15 22:50N 34°35' E 138°30'410.8
2018-Apr-15 22:28N 34°35' E 138°35'611.0
2018-Apr-15 21:56N 34°35' E 138°42'511.2
2018-Apr-15 21:28N 34°35' E 138°48'510.9
2018-Apr-15 20:59N 34°36' E 138°55'711.1
2018-Apr-15 20:23N 34°39' E 139°02'411.1
2018-Apr-15 20:00N 34°42' E 139°06'2311.1
2018-Apr-15 17:57N 34°59' E 139°24'510.6
2018-Apr-15 17:27N 35°02' E 139°30'511.6
2018-Apr-15 17:00N 35°04' E 139°35'612.5
2018-Apr-15 16:30N 35°07' E 139°42'612.0
2018-Apr-15 16:00N 35°12' E 139°46'510.4
2018-Apr-15 15:30N 35°17' E 139°44'510.6
2018-Apr-15 15:01N 35°22' E 139°41'1 2.2
2018-Apr-15 14:30N 35°23' E 139°40'0 0.0
2018-Apr-15 14:00N 35°23' E 139°40'0 0.0
2018-Apr-15 13:31N 35°23' E 139°40'0 0.0
2018-Apr-15 13:00N 35°23' E 139°40'0 0.0
2018-Apr-15 12:30N 35°23' E 139°40'0 0.1
2018-Apr-15 12:00N 35°23' E 139°40'0 0.0
2018-Apr-15 11:30N 35°23' E 139°40'0 0.0
2018-Apr-15 11:01N 35°23' E 139°40'0 0.0
2018-Apr-15 10:30N 35°23' E 139°40'0 0.0
2018-Apr-15 10:00N 35°23' E 139°40'0 0.1
2018-Apr-15 09:30N 35°23' E 139°40'0 0.1
2018-Apr-15 09:01N 35°23' E 139°40'0 0.0
2018-Apr-15 08:31N 35°23' E 139°40'0 0.0
2018-Apr-15 08:00N 35°23' E 139°40'3 5.4
2018-Apr-15 07:31N 35°24' E 139°43'611.2
2018-Apr-15 07:00N 35°28' E 139°48'510.7
2018-Apr-15 06:30N 35°32' E 139°53'511.0
2018-Apr-15 06:00N 35°36' E 139°57'4 8.2
2018-Apr-15 05:30N 35°40' E 139°57'0 0.7
2018-Apr-15 04:57N 35°40' E 139°56'0 0.0
2018-Apr-14 17:07N 35°40' E 139°56'0 0.0
2018-Apr-14 16:50N 35°40' E 139°56'0 0.0
2018-Apr-14 14:12N 35°40' E 139°56'0 0.0
2018-Apr-14 13:55N 35°40' E 139°56'0 0.0
2018-Apr-14 13:29N 35°40' E 139°56'0 0.0
2018-Apr-14 12:26N 35°40' E 139°56'0 0.0
2018-Apr-14 11:14N 35°40' E 139°56'0 0.0
2018-Apr-14 05:47N 35°40' E 139°56'2 1.0
2018-Apr-14 03:25N 35°38' E 139°58'510.9
2018-Apr-14 03:00N 35°35' E 139°56'611.5
2018-Apr-14 02:30N 35°30' E 139°51'611.3
2018-Apr-14 02:01N 35°27' E 139°45'510.6
2018-Apr-14 01:30N 35°23' E 139°41'2 3.5
2018-Apr-14 01:01N 35°23' E 139°38'0 0.0
2018-Apr-14 00:30N 35°23' E 139°38'0 0.0
2018-Apr-14 00:01N 35°23' E 139°38'0 0.0
2018-Apr-13 23:30N 35°23' E 139°38'0 0.0
2018-Apr-13 23:00N 35°23' E 139°38'1 2.2
2018-Apr-13 22:31N 35°24' E 139°40'0 0.3
2018-Apr-13 22:00N 35°23' E 139°40'0 0.0
2018-Apr-13 21:31N 35°23' E 139°40'0 0.0
2018-Apr-13 21:01N 35°23' E 139°40'0 0.1
2018-Apr-13 20:30N 35°23' E 139°40'0 0.0
2018-Apr-13 20:00N 35°23' E 139°40'0 0.1
2018-Apr-13 19:31N 35°23' E 139°40'0 0.0
2018-Apr-13 19:00N 35°23' E 139°40'0 0.0
2018-Apr-13 18:30N 35°23' E 139°40'0 0.0
2018-Apr-13 18:00N 35°23' E 139°40'0 0.0
2018-Apr-13 17:30N 35°23' E 139°40'0 0.0
2018-Apr-13 17:00N 35°23' E 139°40'0 0.0
2018-Apr-13 16:30N 35°23' E 139°40'4 3.5
2018-Apr-13 15:30N 35°25' E 139°44'611.3
2018-Apr-13 15:00N 35°28' E 139°49'510.9
2018-Apr-13 14:30N 35°33' E 139°53'611.1
2018-Apr-13 13:59N 35°37' E 139°58'3 0.9
2018-Apr-13 10:21N 35°40' E 139°57'3 4.7
2018-Apr-13 09:47N 35°38' E 139°59'1 4.4
2018-Apr-13 09:28N 35°37' E 139°58'0 0.0
2018-Apr-13 08:59N 35°37' E 139°58'0 0.0
2018-Apr-13 08:30N 35°37' E 139°58'0 0.2
2018-Apr-13 08:00N 35°37' E 139°58'0 0.0
2018-Apr-13 07:07N 35°37' E 139°58'  

Dump ship's entire track history